Time;durP1;ratioP1;P1;durP2;ratioP2;P2;SDS_P1;SDS_P2;PMS_P1;PMS_P2;Temp;Humidity;BMP_temperature;BMP_pressure;BME280_temperature;BME280_humidity;BME280_pressure;Samples;Min_cycle;Max_cycle;Signal;HPM_P1;HPM_P2
2021/11/09 00:02:18;;;;;;;17.17;11.95;;;9.50;99.90;;;;;;4977403;28;20184;-69
2021/11/09 00:04:50;;;;;;;18.85;12.60;;;9.50;99.90;;;;;;4977301;28;20294;-69
2021/11/09 00:10:07;;;;;;;16.90;12.15;;;9.40;99.90;;;;;;4994855;28;20211;-69
2021/11/09 00:12:58;;;;;;;17.00;12.15;;;9.40;99.90;;;;;;4977321;28;20180;-69
2021/11/09 00:15:25;;;;;;;15.15;11.48;;;9.40;99.90;;;;;;4977767;28;20211;-69
2021/11/09 00:17:54;;;;;;;14.38;11.38;;;9.40;99.90;;;;;;4977051;28;20294;-69
2021/11/09 00:20:23;;;;;;;14.82;11.30;;;9.40;99.90;;;;;;4977568;28;20203;-69
2021/11/09 00:22:49;;;;;;;17.25;12.32;;;9.40;99.90;;;;;;4977145;28;20182;-69
2021/11/09 00:25:16;;;;;;;17.42;12.30;;;9.30;99.90;;;;;;4976937;28;20266;-69
2021/11/09 00:27:44;;;;;;;13.73;10.55;;;9.30;99.90;;;;;;4976933;28;20594;-69
2021/11/09 00:30:13;;;;;;;17.67;11.60;;;9.30;99.90;;;;;;4976876;28;20212;-69
2021/11/09 00:32:43;;;;;;;18.20;11.68;;;9.30;99.90;;;;;;4977285;28;20176;-68
2021/11/09 00:35:14;;;;;;;16.08;11.90;;;9.30;99.90;;;;;;4977033;28;20335;-69
2021/11/09 00:37:47;;;;;;;16.52;11.23;;;9.30;99.90;;;;;;4976911;28;20250;-69
2021/11/09 00:40:22;;;;;;;16.83;11.63;;;9.30;99.90;;;;;;4976905;28;20219;-69
2021/11/09 00:42:48;;;;;;;12.82;11.20;;;9.30;99.90;;;;;;4976980;28;20250;-69
2021/11/09 00:45:18;;;;;;;15.20;11.43;;;9.30;99.90;;;;;;4976731;28;20207;-69
2021/11/09 00:47:48;;;;;;;14.52;11.10;;;9.30;99.90;;;;;;4976734;28;20274;-70
2021/11/09 00:50:20;;;;;;;17.00;10.82;;;9.30;99.90;;;;;;4981915;28;20318;-68
2021/11/09 00:52:53;;;;;;;17.10;11.60;;;9.30;99.90;;;;;;4996572;28;20189;-69
2021/11/09 00:55:21;;;;;;;13.05;10.75;;;9.20;99.90;;;;;;5000579;28;20634;-68
2021/11/09 00:57:51;;;;;;;13.23;11.07;;;9.20;99.90;;;;;;5018049;28;20207;-68
2021/11/09 01:00:24;;;;;;;14.75;10.73;;;9.20;99.90;;;;;;5000420;28;20663;-68
2021/11/09 01:02:50;;;;;;;17.27;11.57;;;9.20;99.90;;;;;;5000065;28;20202;-68
2021/11/09 01:05:23;;;;;;;15.48;11.68;;;9.20;99.90;;;;;;5000109;28;20265;-68
2021/11/09 01:07:54;;;;;;;15.63;11.35;;;9.20;99.90;;;;;;5017728;28;20160;-68
2021/11/09 01:10:21;;;;;;;16.70;11.95;;;9.10;99.90;;;;;;5000332;28;20218;-68
2021/11/09 01:12:54;;;;;;;13.85;9.93;;;9.10;99.90;;;;;;5000463;28;20176;-68
2021/11/09 01:15:22;;;;;;;12.63;9.88;;;9.10;99.90;;;;;;5000112;28;20215;-68
2021/11/09 01:17:49;;;;;;;14.80;10.30;;;9.10;99.90;;;;;;4999797;28;20598;-69
2021/11/09 01:20:19;;;;;;;17.75;11.30;;;9.10;99.90;;;;;;4999983;28;20298;-69
2021/11/09 01:22:50;;;;;;;15.40;10.73;;;9.10;99.90;;;;;;5000129;28;20687;-69
2021/11/09 01:25:17;;;;;;;14.05;10.60;;;9.10;99.90;;;;;;4999794;28;20274;-69
2021/11/09 01:27:44;;;;;;;19.35;11.20;;;9.10;99.90;;;;;;4999442;28;20254;-68
2021/11/09 01:30:11;;;;;;;17.13;10.87;;;9.10;99.90;;;;;;4999752;28;20684;-68
2021/11/09 01:32:38;;;;;;;15.35;10.68;;;9.10;99.90;;;;;;4999807;28;20467;-68
2021/11/09 01:35:05;;;;;;;17.80;10.75;;;9.10;99.90;;;;;;4999533;28;20212;-68
2021/11/09 01:37:32;;;;;;;14.00;11.20;;;9.10;99.90;;;;;;4999604;28;20213;-68
2021/11/09 01:40:11;;;;;;;18.23;11.63;;;9.10;99.90;;;;;;4999545;28;20210;-69
2021/11/09 01:42:38;;;;;;;15.82;10.30;;;9.00;99.90;;;;;;4999571;28;20647;-69
2021/11/09 01:45:12;;;;;;;16.25;11.15;;;9.00;99.90;;;;;;4999508;28;20298;-69
2021/11/09 01:47:42;;;;;;;16.60;11.68;;;9.00;99.90;;;;;;4999856;28;20179;-69
2021/11/09 01:50:17;;;;;;;19.10;12.35;;;9.00;99.90;;;;;;4998824;28;20284;-69
2021/11/09 01:52:44;;;;;;;19.88;11.25;;;9.00;99.90;;;;;;4999304;28;20222;-68
2021/11/09 01:55:15;;;;;;;14.82;11.20;;;9.00;99.90;;;;;;4999419;28;20210;-68
2021/11/09 01:57:42;;;;;;;15.55;10.48;;;9.00;99.90;;;;;;4999685;28;20660;-69
2021/11/09 02:00:15;;;;;;;15.13;10.68;;;9.00;99.90;;;;;;4999169;28;20237;-70
2021/11/09 02:02:43;;;;;;;16.38;10.60;;;9.00;99.90;;;;;;4999017;28;20644;-68
2021/11/09 02:05:14;;;;;;;14.93;11.00;;;9.00;99.90;;;;;;4998153;28;20700;-69
2021/11/09 02:07:53;;;;;;;12.48;10.35;;;9.00;99.90;;;;;;4999058;28;20258;-69
2021/11/09 02:10:24;;;;;;;15.15;11.88;;;8.90;99.90;;;;;;4999007;28;20671;-69
2021/11/09 02:12:51;;;;;;;18.60;12.02;;;8.90;99.90;;;;;;4998876;28;20582;-68
2021/11/09 02:15:17;;;;;;;13.73;10.55;;;8.90;99.90;;;;;;4998843;28;20238;-69
2021/11/09 02:17:46;;;;;;;13.67;10.90;;;8.80;99.90;;;;;;4998917;28;20656;-69
2021/11/09 02:20:19;;;;;;;16.80;10.98;;;8.80;99.90;;;;;;4998672;28;20994;-69
2021/11/09 02:22:49;;;;;;;13.40;10.70;;;8.80;99.90;;;;;;4998809;28;20187;-69
2021/11/09 02:25:16;;;;;;;17.50;11.32;;;8.80;99.90;;;;;;4998607;28;20668;-69
2021/11/09 02:27:44;;;;;;;15.95;11.02;;;8.80;99.90;;;;;;4998757;28;20183;-68
2021/11/09 02:30:13;;;;;;;14.45;11.50;;;8.80;99.90;;;;;;5016145;28;20195;-68
2021/11/09 02:32:39;;;;;;;12.90;10.73;;;8.80;99.90;;;;;;4998650;28;20174;-68
2021/11/09 02:35:08;;;;;;;17.53;11.83;;;8.80;99.90;;;;;;4998498;28;20217;-69
2021/11/09 02:37:35;;;;;;;18.65;12.10;;;8.80;99.90;;;;;;4998260;28;20446;-69
2021/11/09 02:40:05;;;;;;;18.90;11.55;;;8.80;99.90;;;;;;4998610;28;20210;-68
2021/11/09 02:42:35;;;;;;;13.52;10.93;;;8.80;99.90;;;;;;4998723;28;20218;-68
2021/11/09 02:45:10;;;;;;;17.83;12.18;;;8.80;99.90;;;;;;4998151;28;20203;-69
2021/11/09 02:47:55;;;;;;;16.23;11.13;;;8.80;99.90;;;;;;4998272;28;20221;-69
2021/11/09 02:50:24;;;;;;;15.57;11.10;;;8.80;99.90;;;;;;4994581;28;20239;-69
2021/11/09 02:52:59;;;;;;;15.05;11.30;;;8.80;99.90;;;;;;4994733;28;20271;-68
2021/11/09 02:55:36;;;;;;;14.15;11.18;;;8.80;99.90;;;;;;4995104;28;20298;-69
2021/11/09 03:01:10;;;;;;;16.80;11.00;;;8.80;99.90;;;;;;4996058;28;20231;-69
2021/11/09 03:08:47;;;;;;;15.07;11.00;;;8.80;99.90;;;;;;4996070;28;20173;-69
2021/11/09 03:11:14;;;;;;;15.27;11.02;;;8.80;99.90;;;;;;4994583;28;20199;-69
2021/11/09 03:13:44;;;;;;;18.63;11.13;;;8.80;99.90;;;;;;4994813;28;20545;-69
2021/11/09 03:16:13;;;;;;;16.92;11.80;;;8.80;99.90;;;;;;4993990;28;20196;-68
2021/11/09 03:18:51;;;;;;;18.42;11.15;;;8.80;99.90;;;;;;4993895;28;20250;-69
2021/11/09 03:40:30;;;;;;;17.30;11.27;;;8.70;99.90;;;;;;4995740;28;20294;-68
2021/11/09 03:45:41;;;;;;;15.35;11.80;;;8.60;99.90;;;;;;4995813;28;20270;-69
2021/11/09 03:48:10;;;;;;;17.70;12.35;;;8.60;99.90;;;;;;4993867;28;20194;-69
2021/11/09 03:50:47;;;;;;;14.60;11.75;;;8.60;99.90;;;;;;4993518;28;20330;-69
2021/11/09 03:53:20;;;;;;;17.42;11.70;;;8.60;99.90;;;;;;4993767;28;20180;-68
2021/11/09 04:05:46;;;;;;;15.02;11.63;;;8.60;99.90;;;;;;4995281;28;20203;-70
2021/11/09 04:08:44;;;;;;;16.30;12.65;;;8.60;99.90;;;;;;4993304;28;20186;-69
2021/11/09 04:11:22;;;;;;;18.25;12.50;;;8.60;99.90;;;;;;4994520;28;20311;-69
2021/11/09 04:16:41;;;;;;;17.25;12.32;;;8.60;99.90;;;;;;4994834;28;20164;-69
2021/11/09 04:48:29;;;;;;;19.02;13.80;;;8.40;99.90;;;;;;5013880;28;20226;-69
2021/11/09 05:01:50;;;;;;;18.83;12.80;;;8.30;99.90;;;;;;5023484;28;20226;-68
2021/11/09 05:10:00;;;;;;;17.92;12.38;;;8.10;99.90;;;;;;5034000;28;20285;-69
2021/11/09 05:12:26;;;;;;;19.77;13.15;;;8.00;99.90;;;;;;5015666;28;20541;-68
2021/11/09 05:14:52;;;;;;;18.30;14.38;;;8.00;99.90;;;;;;5033444;28;20199;-68
2021/11/09 05:17:20;;;;;;;18.90;13.57;;;7.90;99.90;;;;;;5015658;28;20308;-69
2021/11/09 05:19:52;;;;;;;18.40;13.35;;;7.90;99.90;;;;;;5015206;28;20198;-69
2021/11/09 05:22:20;;;;;;;20.35;13.00;;;7.80;99.90;;;;;;5015616;28;20266;-69
2021/11/09 05:24:46;;;;;;;19.75;13.73;;;7.80;99.90;;;;;;5015025;28;20206;-69
2021/11/09 05:27:16;;;;;;;18.13;12.00;;;7.80;99.90;;;;;;5014553;28;20235;-69
2021/11/09 05:29:44;;;;;;;24.42;15.20;;;7.70;99.90;;;;;;5015457;28;20364;-69
2021/11/09 05:32:10;;;;;;;19.20;13.05;;;7.70;99.90;;;;;;5014443;28;20280;-68
2021/11/09 05:34:36;;;;;;;20.17;14.27;;;7.60;99.90;;;;;;5014659;28;20206;-69
2021/11/09 05:37:04;;;;;;;19.83;14.13;;;7.60;99.90;;;;;;5014902;28;20722;-68
2021/11/09 05:39:50;;;;;;;27.08;17.48;;;7.60;99.90;;;;;;5012724;28;20486;-69
2021/11/09 05:42:16;;;;;;;24.88;16.95;;;7.50;99.90;;;;;;5012526;28;20552;-68
2021/11/09 05:44:43;;;;;;;21.17;14.95;;;7.50;99.90;;;;;;5013879;28;20759;-69
2021/11/09 05:47:12;;;;;;;22.52;15.10;;;7.40;99.90;;;;;;5016711;28;20197;-68
2021/11/09 05:49:44;;;;;;;25.75;15.82;;;7.40;99.90;;;;;;5013271;28;20203;-68
2021/11/09 05:52:11;;;;;;;22.80;15.60;;;7.30;99.90;;;;;;4993889;28;20199;-68
2021/11/09 05:54:38;;;;;;;25.75;16.13;;;7.30;99.90;;;;;;4986482;28;20586;-68
2021/11/09 05:57:04;;;;;;;21.98;14.77;;;7.20;99.90;;;;;;4988592;28;20215;-68
2021/11/09 05:59:34;;;;;;;24.17;15.98;;;7.20;99.90;;;;;;4986753;28;20211;-68
2021/11/09 06:02:03;;;;;;;22.42;14.55;;;7.20;99.90;;;;;;4995039;28;20665;-68
2021/11/09 06:04:29;;;;;;;22.35;14.82;;;7.20;99.90;;;;;;4990416;28;20199;-68
2021/11/09 06:06:56;;;;;;;24.65;16.20;;;7.10;99.90;;;;;;4994211;28;20189;-68
2021/11/09 06:09:30;;;;;;;26.35;16.75;;;7.10;99.90;;;;;;4991692;28;20385;-68
2021/11/09 06:11:56;;;;;;;34.30;17.10;;;7.00;99.90;;;;;;4990645;28;20210;-69
2021/11/09 06:14:22;;;;;;;20.83;14.67;;;7.00;99.90;;;;;;4990303;28;20211;-69
2021/11/09 06:16:56;;;;;;;21.05;14.88;;;6.90;99.90;;;;;;4982708;28;20410;-69
2021/11/09 06:19:25;;;;;;;24.73;15.07;;;6.90;99.90;;;;;;4993444;28;20209;-69
2021/11/09 06:21:55;;;;;;;18.90;14.32;;;6.90;99.90;;;;;;4989026;28;20183;-69
2021/11/09 06:24:23;;;;;;;27.30;14.20;;;7.00;99.90;;;;;;4994626;28;20214;-69
2021/11/09 06:26:50;;;;;;;25.08;14.80;;;7.00;99.90;;;;;;4989119;28;20195;-69
2021/11/09 06:29:16;;;;;;;20.90;15.13;;;7.00;99.90;;;;;;4984256;28;20223;-69
2021/11/09 06:31:45;;;;;;;23.93;15.53;;;7.00;99.90;;;;;;4986790;28;20184;-69
2021/11/09 06:34:18;;;;;;;25.65;14.93;;;7.10;99.90;;;;;;4987871;28;20821;-69
2021/11/09 06:36:45;;;;;;;19.30;15.45;;;7.10;99.90;;;;;;4986485;28;20668;-69
2021/11/09 06:39:11;;;;;;;21.35;14.73;;;7.20;99.90;;;;;;4988511;28;20230;-68
2021/11/09 06:41:37;;;;;;;24.35;15.50;;;7.20;99.90;;;;;;4992482;28;20672;-70
2021/11/09 06:44:05;;;;;;;24.87;15.33;;;7.20;99.90;;;;;;4994006;28;20207;-70
2021/11/09 06:46:31;;;;;;;27.27;14.73;;;7.30;99.90;;;;;;4982261;28;20417;-70
2021/11/09 06:48:57;;;;;;;18.08;12.50;;;7.40;99.90;;;;;;4991232;28;20349;-69
2021/11/09 06:51:31;;;;;;;19.45;13.88;;;7.40;99.90;;;;;;4979956;28;20215;-70
2021/11/09 06:54:06;;;;;;;18.00;13.73;;;7.50;99.90;;;;;;4992549;28;20207;-70
2021/11/09 06:56:32;;;;;;;19.00;13.05;;;7.70;99.90;;;;;;4994866;28;20194;-69
2021/11/09 06:58:59;;;;;;;20.40;13.63;;;7.90;99.90;;;;;;4994520;28;20258;-69
2021/11/09 07:01:25;;;;;;;16.95;12.35;;;8.20;99.90;;;;;;4995275;28;20226;-69
2021/11/09 07:03:51;;;;;;;18.10;12.30;;;8.50;99.90;;;;;;4995985;28;20183;-69
2021/11/09 07:06:18;;;;;;;16.60;12.20;;;8.70;99.90;;;;;;4993493;28;20416;-69
2021/11/09 07:08:45;;;;;;;18.20;14.10;;;9.00;99.90;;;;;;4996767;28;20182;-70
2021/11/09 07:11:11;;;;;;;17.42;13.32;;;9.10;99.90;;;;;;4994478;28;20198;-69
2021/11/09 07:13:47;;;;;;;19.60;14.13;;;9.30;99.90;;;;;;4993098;28;20187;-69
2021/11/09 07:16:15;;;;;;;20.08;13.55;;;9.30;99.90;;;;;;4991908;28;20448;-69
2021/11/09 07:18:41;;;;;;;19.42;14.30;;;9.40;99.90;;;;;;4991541;28;20213;-69
2021/11/09 07:21:08;;;;;;;17.23;13.77;;;9.50;99.90;;;;;;4983388;28;20717;-69
2021/11/09 07:23:34;;;;;;;18.20;13.65;;;9.70;99.90;;;;;;5004765;28;20211;-69
2021/11/09 07:26:01;;;;;;;17.42;13.32;;;9.90;99.90;;;;;;4991747;28;20213;-70
2021/11/09 07:28:27;;;;;;;17.38;13.40;;;10.30;99.90;;;;;;4987008;28;20278;-70
2021/11/09 07:31:01;;;;;;;18.08;14.30;;;10.90;99.90;;;;;;4989723;28;20222;-70
2021/11/09 07:33:29;;;;;;;21.20;12.93;;;11.60;99.90;;;;;;5012551;28;20206;-71
2021/11/09 07:35:56;;;;;;;19.05;13.68;;;12.40;99.90;;;;;;5001933;28;20242;-70
2021/11/09 07:38:22;;;;;;;15.83;12.50;;;13.10;99.90;;;;;;4988847;28;20243;-70
2021/11/09 07:40:49;;;;;;;15.65;12.60;;;13.80;99.90;;;;;;4990974;28;20474;-70
2021/11/09 07:43:16;;;;;;;13.97;12.47;;;14.60;99.90;;;;;;4988520;28;20180;-70
2021/11/09 07:45:42;;;;;;;14.83;12.10;;;15.20;99.90;;;;;;4986875;28;20445;-71
2021/11/09 07:48:12;;;;;;;16.00;12.20;;;15.90;99.90;;;;;;4983931;28;20442;-71
2021/11/09 07:50:38;;;;;;;16.33;13.53;;;16.50;99.90;;;;;;4983532;28;20463;-71
2021/11/09 07:53:35;;;;;;;18.73;13.30;;;17.10;99.90;;;;;;5005957;28;20852;-71
2021/11/09 07:58:48;;;;;;;17.40;13.47;;;18.20;99.90;;;;;;5001250;28;21009;-70
2021/11/09 08:01:18;;;;;;;17.20;12.63;;;18.80;99.90;;;;;;4977578;28;20453;-71
2021/11/09 08:04:02;;;;;;;16.63;13.40;;;19.30;99.90;;;;;;4979308;28;20805;-71
2021/11/09 08:06:55;;;;;;;15.67;13.83;;;19.80;99.90;;;;;;4969695;28;20478;-70
2021/11/09 08:11:48;;;;;;;20.60;14.00;;;20.80;97.90;;;;;;4978965;28;20988;-72
2021/11/09 08:14:16;;;;;;;21.07;14.93;;;21.30;97.90;;;;;;4992289;28;20603;-71
2021/11/09 08:16:47;;;;;;;15.90;14.03;;;21.60;95.70;;;;;;4979997;28;20456;-71
2021/11/09 08:19:16;;;;;;;13.93;12.43;;;21.70;94.60;;;;;;4976578;28;20546;-71
2021/11/09 08:21:43;;;;;;;19.70;14.33;;;21.60;94.70;;;;;;4971080;28;20476;-71
2021/11/09 08:24:18;;;;;;;15.23;13.17;;;21.40;94.20;;;;;;4978707;28;20748;-71
2021/11/09 08:26:53;;;;;;;17.00;14.17;;;21.30;93.90;;;;;;4970399;28;20441;-70
2021/11/09 08:29:26;;;;;;;16.07;14.43;;;21.20;93.70;;;;;;4975809;28;20475;-72
2021/11/09 08:31:58;;;;;;;16.90;14.73;;;21.30;93.70;;;;;;4965619;28;20446;-71
2021/11/09 08:34:27;;;;;;;21.37;15.10;;;21.40;92.70;;;;;;4976240;28;20465;-71
2021/11/09 08:36:59;;;;;;;23.50;17.17;;;21.30;92.50;;;;;;4975626;28;20434;-70
2021/11/09 08:39:38;;;;;;;18.67;15.37;;;21.00;92.80;;;;;;4990194;28;20481;-70
2021/11/09 08:47:21;;;;;;;17.60;13.50;;;19.70;93.80;;;;;;4978990;28;20411;-70
2021/11/09 08:49:51;;;;;;;17.50;13.17;;;19.50;93.80;;;;;;4976282;28;20926;-70
2021/11/09 08:52:22;;;;;;;17.90;14.97;;;19.50;93.40;;;;;;4956578;28;20770;-69
2021/11/09 08:54:59;;;;;;;17.33;15.33;;;19.40;94.10;;;;;;4959761;28;20494;-70
2021/11/09 09:05:13;;;;;;;20.67;16.20;;;19.40;94.80;;;;;;4979543;28;21043;-70
2021/11/09 09:07:40;;;;;;;16.70;14.97;;;19.50;94.80;;;;;;4978349;28;20452;-70
2021/11/09 09:10:11;;;;;;;17.43;13.97;;;19.60;94.00;;;;;;4963375;28;20489;-70
2021/11/09 09:12:40;;;;;;;17.53;14.30;;;19.70;94.00;;;;;;4978188;28;20441;-70
2021/11/09 09:15:12;;;;;;;19.80;15.17;;;19.80;93.70;;;;;;4958775;28;20478;-70
2021/11/09 09:17:40;;;;;;;19.97;15.53;;;19.60;93.80;;;;;;4965741;28;20472;-70
2021/11/09 09:20:20;;;;;;;20.33;14.37;;;19.30;93.80;;;;;;4968879;28;20525;-70
2021/11/09 09:25:42;;;;;;;18.30;14.37;;;18.90;94.30;;;;;;4994448;28;20567;-70
2021/11/09 09:56:15;;;;;;;24.83;18.20;;;16.20;99.80;;;;;;5007222;28;20452;-70
2021/11/09 09:58:41;;;;;;;25.73;18.93;;;15.90;99.90;;;;;;4988847;28;20472;-71
2021/11/09 10:01:10;;;;;;;25.03;18.47;;;15.80;99.90;;;;;;5015300;28;20454;-71
2021/11/09 10:03:42;;;;;;;27.20;18.30;;;15.70;99.90;;;;;;4995208;28;20784;-70
2021/11/09 10:06:09;;;;;;;24.00;20.27;;;15.60;99.90;;;;;;4990441;28;20456;-70
2021/11/09 10:08:50;;;;;;;23.23;19.80;;;15.60;99.90;;;;;;4988622;28;20941;-70
2021/11/09 10:15:01;;;;;;;25.47;19.00;;;15.40;99.90;;;;;;5008726;28;20479;-70
2021/11/09 10:17:29;;;;;;;25.83;19.53;;;15.40;99.90;;;;;;4995402;28;20478;-70
2021/11/09 10:19:59;;;;;;;24.60;19.73;;;15.30;99.90;;;;;;4993379;28;21169;-71
2021/11/09 10:22:40;;;;;;;25.43;19.43;;;15.20;99.90;;;;;;4988982;28;20456;-70
2021/11/09 10:25:10;;;;;;;27.03;20.20;;;15.20;99.90;;;;;;4987097;28;21051;-70
2021/11/09 10:27:39;;;;;;;30.27;21.67;;;15.20;99.90;;;;;;5002433;28;21341;-71
2021/11/09 10:30:15;;;;;;;27.90;19.90;;;15.10;99.90;;;;;;4991951;28;20534;-71
2021/11/09 10:32:42;;;;;;;34.07;21.13;;;15.10;99.90;;;;;;4989471;28;20415;-70
2021/11/09 10:35:19;;;;;;;28.00;20.70;;;15.00;99.90;;;;;;4986077;28;20491;-71
2021/11/09 10:37:55;;;;;;;32.20;21.73;;;15.00;99.90;;;;;;4990054;28;21050;-71
2021/11/09 10:40:35;;;;;;;28.50;20.80;;;14.90;99.90;;;;;;4991245;28;20519;-71
2021/11/09 10:43:07;;;;;;;26.27;21.20;;;14.90;99.90;;;;;;4993137;28;20439;-70
2021/11/09 10:45:38;;;;;;;25.70;20.63;;;15.00;99.90;;;;;;4982201;28;20469;-70
2021/11/09 10:48:14;;;;;;;27.30;21.53;;;15.00;99.90;;;;;;4991904;28;20809;-70
2021/11/09 10:50:43;;;;;;;26.60;20.47;;;15.00;99.90;;;;;;5000668;28;20477;-71
2021/11/09 10:56:57;;;;;;;26.60;20.87;;;15.00;99.90;;;;;;5028062;28;20467;-71
2021/11/09 10:59:46;;;;;;;29.33;21.10;;;15.00;99.90;;;;;;5010855;28;20513;-70
2021/11/09 11:05:23;;;;;;;31.47;19.73;;;14.90;99.90;;;;;;5027058;28;20466;-70
2021/11/09 11:08:01;;;;;;;26.73;20.10;;;15.00;99.90;;;;;;5015114;28;20833;-71
2021/11/09 11:10:35;;;;;;;28.20;21.00;;;15.00;99.90;;;;;;5021881;28;20499;-71
2021/11/09 11:13:24;;;;;;;30.60;21.97;;;15.00;99.90;;;;;;5015881;28;20424;-70
2021/11/09 11:16:10;;;;;;;25.97;19.93;;;15.00;99.90;;;;;;5002168;28;20467;-70
2021/11/09 11:18:39;;;;;;;31.50;23.73;;;15.10;99.90;;;;;;5011543;28;20465;-70
2021/11/09 11:21:06;;;;;;;29.03;22.50;;;15.10;99.90;;;;;;5019420;28;20444;-70
2021/11/09 11:23:43;;;;;;;31.40;22.87;;;15.10;99.90;;;;;;5013925;28;20432;-70
2021/11/09 11:26:15;;;;;;;29.57;22.00;;;15.10;99.90;;;;;;5014364;28;20450;-70
2021/11/09 11:28:44;;;;;;;36.60;21.27;;;15.10;99.90;;;;;;5007265;28;20470;-71
2021/11/09 11:31:11;;;;;;;32.73;23.33;;;15.10;99.90;;;;;;5028983;28;20448;-71
2021/11/09 11:33:56;;;;;;;30.50;23.07;;;15.10;99.90;;;;;;5034333;28;20414;-70
2021/11/09 11:36:25;;;;;;;33.80;22.93;;;15.10;99.90;;;;;;5003029;28;20435;-70
2021/11/09 11:38:58;;;;;;;29.50;22.00;;;15.10;99.90;;;;;;5006871;28;20608;-70
2021/11/09 11:41:36;;;;;;;30.67;21.87;;;15.00;99.90;;;;;;5009189;28;20895;-70
2021/11/09 11:44:09;;;;;;;34.33;22.60;;;15.00;99.90;;;;;;5013079;28;20427;-70
2021/11/09 11:46:35;;;;;;;32.90;21.87;;;14.90;99.90;;;;;;5007031;28;20578;-69
2021/11/09 11:49:22;;;;;;;28.87;21.00;;;14.90;99.90;;;;;;5009843;28;20455;-70
2021/11/09 11:51:53;;;;;;;33.50;22.67;;;14.90;99.90;;;;;;4991118;28;20456;-69
2021/11/09 11:54:39;;;;;;;30.07;21.60;;;14.90;99.90;;;;;;4986017;28;20850;-69
2021/11/09 11:57:06;;;;;;;32.87;23.13;;;14.90;99.90;;;;;;4987334;28;20515;-69
2021/11/09 11:59:32;;;;;;;27.83;20.93;;;14.90;99.90;;;;;;4980959;28;20536;-69
2021/11/09 12:02:06;;;;;;;32.20;21.40;;;14.90;99.90;;;;;;4990499;28;20540;-70
2021/11/09 12:04:44;;;;;;;31.83;21.87;;;14.90;99.90;;;;;;4986231;28;20202;-70
2021/11/09 12:07:16;;;;;;;29.23;21.47;;;15.00;99.90;;;;;;4991010;28;20479;-70
2021/11/09 12:09:49;;;;;;;29.13;20.83;;;15.10;99.90;;;;;;4990939;28;20468;-69
2021/11/09 12:12:18;;;;;;;28.93;22.10;;;15.10;99.90;;;;;;4991512;28;20479;-70
2021/11/09 12:15:17;;;;;;;28.20;21.03;;;15.10;99.90;;;;;;4983125;28;20553;-70
2021/11/09 12:17:52;;;;;;;29.67;20.20;;;15.20;99.90;;;;;;4968034;28;20480;-70
2021/11/09 12:20:19;;;;;;;28.00;20.17;;;15.20;99.90;;;;;;4980221;28;20479;-70
2021/11/09 12:22:57;;;;;;;27.50;19.43;;;15.20;99.90;;;;;;4984974;28;20448;-70
2021/11/09 12:25:32;;;;;;;33.20;21.80;;;15.20;99.90;;;;;;4997396;28;20427;-70
2021/11/09 12:27:59;;;;;;;27.27;19.90;;;15.20;99.90;;;;;;5004170;28;20465;-70
2021/11/09 12:30:34;;;;;;;30.93;20.30;;;15.30;99.90;;;;;;4987759;28;20559;-70
2021/11/09 12:33:16;;;;;;;30.73;21.23;;;15.30;99.90;;;;;;4988888;28;20440;-70
2021/11/09 12:35:48;;;;;;;32.00;21.80;;;15.30;99.90;;;;;;4986494;28;21441;-69
2021/11/09 12:38:30;;;;;;;28.33;20.80;;;15.30;99.90;;;;;;4989627;28;20529;-71
2021/11/09 12:40:58;;;;;;;29.60;20.27;;;15.30;99.90;;;;;;4991407;28;20491;-69
2021/11/09 12:43:55;;;;;;;31.97;20.93;;;15.40;99.90;;;;;;4991058;28;20415;-69
2021/11/09 12:46:34;;;;;;;28.83;19.83;;;15.40;99.90;;;;;;4982561;28;20449;-70
2021/11/09 12:49:10;;;;;;;22.37;16.80;;;15.40;99.90;;;;;;4987911;28;20460;-70
2021/11/09 12:51:41;;;;;;;29.93;19.90;;;15.30;99.90;;;;;;5006824;28;20995;-70
2021/11/09 12:54:16;;;;;;;31.67;19.90;;;15.30;99.90;;;;;;5010106;28;20494;-70
2021/11/09 12:56:57;;;;;;;25.80;17.90;;;15.40;99.90;;;;;;5025576;28;20948;-70
2021/11/09 13:04:51;;;;;;;25.70;17.97;;;15.50;99.90;;;;;;5024523;28;20616;-70
2021/11/09 13:07:35;;;;;;;29.10;19.20;;;15.50;99.90;;;;;;5006441;28;20844;-69
2021/11/09 13:10:17;;;;;;;28.90;20.20;;;15.50;99.90;;;;;;5006706;28;20468;-70
2021/11/09 13:12:47;;;;;;;28.17;19.37;;;15.50;99.90;;;;;;5006948;28;20952;-70
2021/11/09 13:15:16;;;;;;;31.63;20.80;;;15.50;99.90;;;;;;4986942;28;20555;-69
2021/11/09 13:17:44;;;;;;;30.43;20.27;;;15.60;99.90;;;;;;5002252;28;20472;-70
2021/11/09 13:22:58;;;;;;;30.10;19.00;;;15.60;99.90;;;;;;5021218;28;20487;-70
2021/11/09 13:25:35;;;;;;;27.60;18.80;;;15.60;99.90;;;;;;5007781;28;20451;-70
2021/11/09 13:28:14;;;;;;;25.47;18.13;;;15.70;99.90;;;;;;5007569;28;20443;-70
2021/11/09 13:30:44;;;;;;;27.53;18.40;;;15.70;99.90;;;;;;5013417;28;20790;-69
2021/11/09 13:33:14;;;;;;;28.57;18.33;;;15.70;99.90;;;;;;5008026;28;20438;-70
2021/11/09 13:35:45;;;;;;;25.77;18.37;;;15.70;99.90;;;;;;5005332;28;20795;-70
2021/11/09 13:38:13;;;;;;;26.17;18.03;;;15.70;99.90;;;;;;5008625;28;20475;-71
2021/11/09 13:40:45;;;;;;;24.73;17.70;;;15.70;99.90;;;;;;5004047;28;20897;-71
2021/11/09 13:43:15;;;;;;;27.27;18.47;;;15.70;99.90;;;;;;5002732;28;20455;-71
2021/11/09 13:45:42;;;;;;;30.10;19.43;;;15.70;99.90;;;;;;4999486;28;20471;-72
2021/11/09 13:48:24;;;;;;;27.00;19.30;;;15.70;99.90;;;;;;4999533;28;20791;-71
2021/11/09 13:50:51;;;;;;;31.53;20.20;;;15.60;99.90;;;;;;5003171;28;20499;-71
2021/11/09 13:53:45;;;;;;;27.73;21.23;;;15.60;99.90;;;;;;4997274;28;20519;-71
2021/11/09 13:56:17;;;;;;;27.30;20.17;;;15.60;99.90;;;;;;5001755;28;20523;-71
2021/11/09 13:59:08;;;;;;;27.53;20.43;;;15.60;99.90;;;;;;5000518;28;20522;-70
2021/11/09 14:02:00;;;;;;;26.50;19.07;;;15.60;99.90;;;;;;4998906;28;20436;-70
2021/11/09 14:16:16;;;;;;;33.40;24.43;;;15.30;99.90;;;;;;5007926;28;20475;-70
2021/11/09 14:18:53;;;;;;;31.37;21.33;;;15.30;99.90;;;;;;4993856;28;20480;-70
2021/11/09 14:21:36;;;;;;;30.90;21.03;;;15.30;99.90;;;;;;5005163;28;20439;-70
2021/11/09 14:24:18;;;;;;;31.73;23.20;;;15.30;99.90;;;;;;4991889;28;20467;-71
2021/11/09 14:26:46;;;;;;;35.83;23.73;;;15.40;99.90;;;;;;5006245;28;20483;-70
2021/11/09 14:29:30;;;;;;;35.70;22.90;;;15.50;99.90;;;;;;5006994;28;20486;-70
2021/11/09 14:32:08;;;;;;;34.20;23.70;;;15.50;99.90;;;;;;5005482;28;20496;-71
2021/11/09 14:34:38;;;;;;;40.10;26.20;;;15.50;99.90;;;;;;5006242;28;20463;-71
2021/11/09 14:37:17;;;;;;;39.50;26.43;;;15.50;99.90;;;;;;5006669;28;20479;-71
2021/11/09 14:39:58;;;;;;;44.53;26.43;;;15.40;99.90;;;;;;5004373;28;20473;-70
2021/11/09 14:43:17;;;;;;;43.23;28.40;;;15.20;99.90;;;;;;4998400;28;20496;-70
2021/11/09 14:48:31;;;;;;;39.70;28.43;;;14.90;99.90;;;;;;5004066;28;20790;-70
2021/11/09 14:53:58;;;;;;;43.63;28.90;;;14.40;99.90;;;;;;5006904;28;20532;-70
2021/11/09 14:56:36;;;;;;;43.60;30.50;;;14.20;99.90;;;;;;5010445;28;20420;-70
2021/11/09 14:59:07;;;;;;;47.93;30.40;;;14.10;99.90;;;;;;5008341;28;20488;-71
2021/11/09 15:02:02;;;;;;;45.40;29.60;;;13.90;99.90;;;;;;5007088;28;20504;-70
2021/11/09 15:04:44;;;;;;;53.30;30.37;;;13.70;99.90;;;;;;5010668;28;20470;-71
2021/11/09 15:12:43;;;;;;;47.53;30.60;;;13.30;99.90;;;;;;5012301;28;20992;-71
2021/11/09 15:29:20;;;;;;;57.53;34.30;;;12.70;99.90;;;;;;5004123;28;20432;-70
2021/11/09 15:39:59;;;;;;;91.68;51.80;;;12.30;99.90;;;;;;4995967;28;20279;-69
2021/11/09 15:42:31;;;;;;;109.88;57.65;;;12.20;99.90;;;;;;5009224;28;20282;-70
2021/11/09 15:45:11;;;;;;;91.05;51.90;;;12.10;99.90;;;;;;4996898;28;20234;-70
2021/11/09 15:47:48;;;;;;;93.28;51.00;;;12.10;99.90;;;;;;4996033;28;20356;-70
2021/11/09 15:50:16;;;;;;;59.92;39.47;;;12.00;99.90;;;;;;5008355;28;20239;-70
2021/11/09 15:52:48;;;;;;;64.50;39.42;;;11.90;99.90;;;;;;5010117;28;20251;-70
2021/11/09 15:55:16;;;;;;;81.10;45.78;;;11.80;99.90;;;;;;5009041;28;20219;-70
2021/11/09 15:57:45;;;;;;;100.63;52.60;;;11.70;99.90;;;;;;5008645;28;20584;-70
2021/11/09 16:00:12;;;;;;;82.95;48.17;;;11.60;99.90;;;;;;5007230;28;20587;-71
2021/11/09 16:02:43;;;;;;;91.90;45.47;;;11.50;99.90;;;;;;5000138;28;20537;-70
2021/11/09 16:05:09;;;;;;;95.07;51.80;;;11.40;99.90;;;;;;4998239;28;20482;-71
2021/11/09 16:07:35;;;;;;;98.47;50.58;;;11.40;99.90;;;;;;4996441;28;20175;-71
2021/11/09 16:10:03;;;;;;;95.32;52.95;;;11.30;99.90;;;;;;5000800;28;20227;-70
2021/11/09 16:12:32;;;;;;;92.85;50.00;;;11.20;99.90;;;;;;5005360;28;20176;-70
2021/11/09 16:15:01;;;;;;;115.15;59.53;;;11.10;99.90;;;;;;5005406;28;20204;-69
2021/11/09 16:17:27;;;;;;;95.90;58.28;;;11.10;99.90;;;;;;5005270;28;20963;-70
2021/11/09 16:20:06;;;;;;;104.03;60.17;;;11.00;99.90;;;;;;5018331;28;20233;-70